Time;durP1;ratioP1;P1;durP2;ratioP2;P2;SDS_P1;SDS_P2;PMS_P1;PMS_P2;Temp;Humidity;BMP_temperature;BMP_pressure;BME280_temperature;BME280_humidity;BME280_pressure;Samples;Min_cycle;Max_cycle;Signal;HPM_P1;HPM_P2
2023/12/12 00:00:36;;;;;;;0.00;0.00;;;;;;;10.53;100.00;99091.03;4886191;29;20028;-77
2023/12/12 00:03:02;;;;;;;0.00;0.00;;;;;;;10.54;100.00;99087.19;4887749;29;20024;-77
2023/12/12 00:05:28;;;;;;;0.00;0.00;;;;;;;10.59;100.00;99089.84;4891838;29;20036;-77
2023/12/12 00:08:01;;;;;;;0.00;0.00;;;;;;;10.55;100.00;99075.13;4889605;29;20091;-77
2023/12/12 00:10:26;;;;;;;0.00;0.00;;;;;;;10.55;100.00;99069.66;4904228;29;20032;-78
2023/12/12 00:12:52;;;;;;;0.00;0.00;;;;;;;10.57;100.00;99059.28;4894106;29;20417;-77
2023/12/12 00:15:18;;;;;;;0.10;0.10;;;;;;;10.63;100.00;99059.97;4890320;29;20463;-77
2023/12/12 00:17:43;;;;;;;0.00;0.00;;;;;;;10.71;100.00;99051.09;4895951;29;20037;-78
2023/12/12 00:20:10;;;;;;;0.00;0.00;;;;;;;10.76;100.00;99050.19;4889113;29;20472;-78
2023/12/12 00:22:36;;;;;;;0.00;0.00;;;;;;;10.62;100.00;99029.09;4916652;29;20028;-77
2023/12/12 00:25:02;;;;;;;0.00;0.00;;;;;;;10.62;100.00;99029.09;4907820;29;20028;-76
2023/12/12 00:27:27;;;;;;;0.00;0.00;;;;;;;10.80;100.00;99052.00;4901726;29;20025;-77
2023/12/12 00:29:55;;;;;;;0.00;0.00;;;;;;;10.57;100.00;99003.75;4903673;29;20025;-76
2023/12/12 00:32:20;;;;;;;0.10;0.10;;;;;;;10.86;100.00;99036.31;4901053;29;20040;-76
2023/12/12 00:34:46;;;;;;;0.00;0.00;;;;;;;10.79;100.00;99027.69;4901601;29;20546;-76
2023/12/12 00:37:11;;;;;;;0.00;0.00;;;;;;;10.90;100.00;99034.59;4889780;29;20202;-77
2023/12/12 00:39:39;;;;;;;0.00;0.00;;;;;;;10.94;100.00;99035.63;4890034;29;20036;-77
2023/12/12 00:42:05;;;;;;;0.03;0.03;;;;;;;10.96;100.00;99030.66;4909312;29;20767;-77
2023/12/12 00:44:30;;;;;;;0.00;0.00;;;;;;;10.94;100.00;99021.97;4895350;29;20126;-76
2023/12/12 00:46:58;;;;;;;0.00;0.00;;;;;;;10.96;100.00;99025.19;4908969;29;20107;-76
2023/12/12 00:49:23;;;;;;;0.00;0.00;;;;;;;10.77;100.00;98986.19;4896627;29;21217;-76
2023/12/12 00:51:48;;;;;;;0.00;0.00;;;;;;;10.72;100.00;98978.06;4903776;29;20040;-76
2023/12/12 00:54:14;;;;;;;0.00;0.00;;;;;;;10.80;100.00;98985.56;4893537;29;20666;-76
2023/12/12 00:56:39;;;;;;;0.00;0.00;;;;;;;10.81;100.00;98976.28;4913635;29;20044;-76
2023/12/12 00:59:07;;;;;;;0.00;0.00;;;;;;;10.96;100.00;98994.31;4897095;29;20035;-77
2023/12/12 01:01:35;;;;;;;0.00;0.00;;;;;;;10.99;100.00;98994.53;4901431;29;20478;-77
2023/12/12 01:04:00;;;;;;;0.00;0.00;;;;;;;10.88;100.00;98982.16;4916118;29;20037;-77
2023/12/12 01:06:26;;;;;;;0.00;0.00;;;;;;;10.92;100.00;98980.44;4888445;29;20044;-76
2023/12/12 01:08:52;;;;;;;0.00;0.00;;;;;;;11.02;100.00;98984.06;4890295;29;20108;-77
2023/12/12 01:11:18;;;;;;;0.00;0.00;;;;;;;11.10;100.00;98989.66;4904927;29;20072;-76
2023/12/12 01:13:44;;;;;;;0.00;0.00;;;;;;;11.12;100.00;98981.94;4905840;29;20028;-76
2023/12/12 01:16:10;;;;;;;0.00;0.00;;;;;;;11.08;100.00;98972.75;4896918;29;20406;-77
2023/12/12 01:18:35;;;;;;;0.00;0.00;;;;;;;11.07;100.00;98964.81;4905899;29;20049;-77
2023/12/12 01:21:08;;;;;;;0.00;0.00;;;;;;;11.09;100.00;98968.88;4909881;29;20031;-76
2023/12/12 01:23:50;;;;;;;0.00;0.00;;;;;;;11.18;100.00;98985.38;4898360;29;21711;-76
2023/12/12 01:26:16;;;;;;;0.00;0.00;;;;;;;11.07;100.00;98949.22;4907838;29;20025;-77
2023/12/12 01:28:41;;;;;;;0.00;0.00;;;;;;;11.08;100.00;98945.38;4895063;29;20036;-76
2023/12/12 01:31:07;;;;;;;0.00;0.00;;;;;;;11.15;100.00;98958.63;4893905;29;20384;-76
2023/12/12 01:33:32;;;;;;;0.00;0.00;;;;;;;11.05;100.00;98937.75;4900330;29;20064;-76
2023/12/12 01:35:58;;;;;;;0.00;0.00;;;;;;;11.10;100.00;98950.53;4874865;29;21582;-75
2023/12/12 01:38:23;;;;;;;0.00;0.00;;;;;;;11.07;100.00;98940.19;4919054;29;20023;-77
2023/12/12 01:40:48;;;;;;;0.00;0.00;;;;;;;11.09;100.00;98932.50;4899113;29;20046;-77
2023/12/12 01:43:31;;;;;;;0.00;0.00;;;;;;;11.10;100.00;98934.13;4879180;29;20032;-76
2023/12/12 01:46:01;;;;;;;0.00;0.00;;;;;;;11.12;100.00;98942.81;4904702;29;20032;-77
2023/12/12 01:48:28;;;;;;;0.00;0.00;;;;;;;11.15;100.00;98953.16;4922431;29;20526;-77
2023/12/12 01:50:54;;;;;;;0.00;0.00;;;;;;;11.11;100.00;98942.03;4899967;29;20036;-76
2023/12/12 01:53:24;;;;;;;0.00;0.00;;;;;;;11.08;100.00;98928.13;4898868;29;20538;-76
2023/12/12 01:55:53;;;;;;;0.00;0.00;;;;;;;11.02;100.00;98910.22;4902572;29;20038;-76
2023/12/12 01:58:20;;;;;;;0.10;0.10;;;;;;;10.89;100.00;98901.72;4907720;29;20051;-76
2023/12/12 02:00:47;;;;;;;0.00;0.00;;;;;;;10.88;100.00;98900.09;4906763;29;20739;-77
2023/12/12 02:03:13;;;;;;;0.00;0.00;;;;;;;11.04;100.00;98921.66;4908657;29;20028;-78
2023/12/12 02:05:41;;;;;;;0.00;0.00;;;;;;;10.98;100.00;98899.06;4908617;29;20032;-77
2023/12/12 02:08:14;;;;;;;0.00;0.00;;;;;;;10.82;100.00;98874.78;4908932;29;20036;-78
2023/12/12 02:10:40;;;;;;;0.00;0.00;;;;;;;10.89;100.00;98907.19;4892675;29;20087;-76
2023/12/12 02:13:06;;;;;;;0.00;0.00;;;;;;;10.85;100.00;98891.69;4916194;29;20123;-76
2023/12/12 02:15:42;;;;;;;0.00;0.00;;;;;;;10.87;100.00;98892.22;4912655;29;20168;-76
2023/12/12 02:18:18;;;;;;;;;;;;;;;;;;;;;
2023/12/12 02:20:44;;;;;;;0.00;0.00;;;;;;;10.89;100.00;98879.84;4892760;29;20035;-76
2023/12/12 02:23:09;;;;;;;0.00;0.00;;;;;;;10.88;100.00;98870.03;4889287;29;20036;-78
2023/12/12 02:25:37;;;;;;;0.00;0.00;;;;;;;11.05;100.00;98885.00;4918554;29;20111;-76
2023/12/12 02:28:03;;;;;;;0.00;0.00;;;;;;;10.96;100.00;98868.50;4910144;29;20047;-76
2023/12/12 02:30:30;;;;;;;0.00;0.00;;;;;;;11.03;100.00;98876.28;4905132;29;20036;-75
2023/12/12 02:32:58;;;;;;;0.00;0.00;;;;;;;11.03;100.00;98868.09;4887208;29;20067;-76
2023/12/12 02:35:23;;;;;;;0.00;0.00;;;;;;;11.06;100.00;98875.66;4909114;29;20016;-76
2023/12/12 02:37:49;;;;;;;0.00;0.00;;;;;;;11.04;100.00;98869.69;4895764;29;21139;-77
2023/12/12 02:40:16;;;;;;;0.00;0.00;;;;;;;10.93;100.00;98852.69;4908411;29;20073;-77
2023/12/12 02:42:46;;;;;;;0.00;0.00;;;;;;;10.98;100.00;98866.25;4899206;29;20039;-76
2023/12/12 02:45:12;;;;;;;0.00;0.00;;;;;;;10.93;100.00;98858.97;4914205;29;20040;-78
2023/12/12 02:47:37;;;;;;;0.00;0.00;;;;;;;10.98;100.00;98850.66;4895065;29;20423;-76
2023/12/12 02:50:03;;;;;;;0.00;0.00;;;;;;;10.80;100.00;98832.47;4913656;29;20467;-78
2023/12/12 02:52:29;;;;;;;0.00;0.00;;;;;;;10.89;100.00;98855.22;4908066;29;20640;-78
2023/12/12 02:54:54;;;;;;;0.00;0.00;;;;;;;10.85;100.00;98858.88;4908798;29;20033;-77
2023/12/12 02:57:31;;;;;;;0.00;0.00;;;;;;;10.79;100.00;98841.75;4917081;29;20036;-78
2023/12/12 02:59:57;;;;;;;0.00;0.00;;;;;;;10.85;100.00;98851.50;4921706;29;20055;-78
2023/12/12 03:02:22;;;;;;;0.00;0.00;;;;;;;11.00;100.00;98874.97;4911907;29;20450;-77
2023/12/12 03:04:48;;;;;;;0.00;0.00;;;;;;;10.80;100.00;98843.41;4873868;29;20040;-77
2023/12/12 03:07:16;;;;;;;0.00;0.00;;;;;;;10.91;100.00;98855.75;4903917;29;20499;-77
2023/12/12 03:09:43;;;;;;;0.00;0.00;;;;;;;10.71;100.00;98828.84;4914103;29;20028;-78
2023/12/12 03:12:11;;;;;;;0.00;0.00;;;;;;;10.69;100.00;98825.56;4890593;29;20129;-78
2023/12/12 03:14:39;;;;;;;0.00;0.00;;;;;;;10.61;100.00;98819.72;4877643;29;20242;-77
2023/12/12 03:17:04;;;;;;;0.00;0.00;;;;;;;10.77;100.00;98844.00;4885980;29;20040;-78
2023/12/12 03:19:36;;;;;;;0.00;0.00;;;;;;;10.60;100.00;98823.59;4888805;29;20041;-78
2023/12/12 03:22:11;;;;;;;0.00;0.00;;;;;;;10.52;100.00;98810.63;4909607;29;20028;-79
2023/12/12 03:24:37;;;;;;;0.00;0.00;;;;;;;10.66;100.00;98829.75;4910874;29;20115;-77
2023/12/12 03:27:05;;;;;;;0.00;0.00;;;;;;;10.62;100.00;98826.81;4894113;29;20451;-78
2023/12/12 03:29:30;;;;;;;0.00;0.00;;;;;;;10.64;100.00;98830.06;4867701;29;20088;-80
2023/12/12 03:31:58;;;;;;;0.00;0.00;;;;;;;10.61;100.00;98808.78;4898734;29;20107;-77
2023/12/12 03:34:23;;;;;;;0.00;0.00;;;;;;;10.72;100.00;98824.97;4910164;29;20016;-78
2023/12/12 03:36:49;;;;;;;0.00;0.00;;;;;;;10.58;100.00;98806.66;4865506;29;20042;-78
2023/12/12 03:39:14;;;;;;;0.00;0.00;;;;;;;10.68;100.00;98811.13;4889210;29;20056;-78
2023/12/12 03:41:44;;;;;;;0.00;0.00;;;;;;;10.53;100.00;98797.75;4888772;29;20048;-77
2023/12/12 03:44:09;;;;;;;0.00;0.00;;;;;;;10.62;100.00;98810.41;4911874;29;20038;-78
2023/12/12 03:46:34;;;;;;;0.00;0.00;;;;;;;10.72;100.00;98816.75;4893600;29;20036;-79
2023/12/12 03:49:00;;;;;;;0.00;0.00;;;;;;;10.62;100.00;98793.22;4891868;29;20033;-78
2023/12/12 03:51:26;;;;;;;0.10;0.10;;;;;;;10.63;100.00;98795.63;4880162;29;20031;-78
2023/12/12 03:54:04;;;;;;;;;;;;;;;;;;;;;
2023/12/12 03:56:30;;;;;;;0.00;0.00;;;;;;;10.60;100.00;98796.25;4900399;29;20032;-78
2023/12/12 03:59:03;;;;;;;0.00;0.00;;;;;;;10.69;100.00;98803.72;4901607;29;20020;-78
2023/12/12 04:01:31;;;;;;;0.00;0.00;;;;;;;10.58;100.00;98787.53;4900041;29;20032;-78
2023/12/12 04:03:59;;;;;;;0.00;0.00;;;;;;;10.53;100.00;98779.44;4906757;29;20126;-77
2023/12/12 04:06:47;;;;;;;0.00;0.00;;;;;;;10.53;100.00;98773.97;4890348;29;20028;-77
2023/12/12 04:09:30;;;;;;;0.00;0.00;;;;;;;10.38;100.00;98758.72;4903524;29;21480;-78
2023/12/12 04:12:03;;;;;;;0.00;0.00;;;;;;;10.39;100.00;98757.59;4908387;29;20032;-78
2023/12/12 04:14:33;;;;;;;0.00;0.00;;;;;;;10.40;100.00;98758.41;4908451;29;20021;-77
2023/12/12 04:17:24;;;;;;;0.00;0.00;;;;;;;10.46;100.00;98766.19;4906824;29;20063;-78
2023/12/12 04:19:54;;;;;;;0.00;0.00;;;;;;;10.51;100.00;98768.00;4891704;29;20605;-78
2023/12/12 04:22:19;;;;;;;0.08;0.08;;;;;;;10.48;100.00;98766.72;4918251;29;20195;-78
2023/12/12 04:24:47;;;;;;;0.00;0.00;;;;;;;10.26;100.00;98734.59;4921320;29;20126;-79
2023/12/12 04:27:15;;;;;;;0.00;0.00;;;;;;;10.30;100.00;98741.06;4906489;29;20039;-77
2023/12/12 04:30:01;;;;;;;0.00;0.00;;;;;;;10.24;100.00;98755.97;4906800;29;20043;-79
2023/12/12 04:32:29;;;;;;;0.00;0.00;;;;;;;10.03;100.00;98738.34;4900441;29;20103;-77
2023/12/12 04:35:24;;;;;;;0.00;0.00;;;;;;;9.99;100.00;98745.53;4903297;29;20029;-78
2023/12/12 04:37:52;;;;;;;0.00;0.00;;;;;;;10.06;100.00;98765.06;4914157;29;20487;-78
2023/12/12 04:40:17;;;;;;;0.00;0.00;;;;;;;9.84;100.00;98742.00;4915452;29;20036;-77
2023/12/12 04:42:43;;;;;;;0.00;0.00;;;;;;;9.82;100.00;98744.22;4893612;29;20387;-78
2023/12/12 04:45:18;;;;;;;0.00;0.00;;;;;;;9.66;100.00;98729.25;4907268;29;20043;-78
2023/12/12 04:47:44;;;;;;;0.00;0.00;;;;;;;9.78;100.00;98754.13;4907834;29;20024;-79
2023/12/12 04:50:09;;;;;;;0.00;0.00;;;;;;;9.78;100.00;98762.31;4905923;29;20021;-79
2023/12/12 04:52:35;;;;;;;0.00;0.00;;;;;;;9.68;100.00;98746.13;4903847;29;20031;-77
2023/12/12 04:55:01;;;;;;;0.00;0.00;;;;;;;9.68;100.00;98749.69;4888322;29;20099;-79
2023/12/12 04:57:29;;;;;;;0.00;0.00;;;;;;;9.63;100.00;98738.84;4888142;29;20155;-78
2023/12/12 05:00:02;;;;;;;0.00;0.00;;;;;;;9.70;100.00;98742.00;4918998;29;20054;-79
2023/12/12 05:02:28;;;;;;;0.00;0.00;;;;;;;9.72;100.00;98738.94;4896309;29;20042;-79
2023/12/12 05:04:58;;;;;;;0.00;0.00;;;;;;;9.50;100.00;98709.63;4889080;29;20029;-77
2023/12/12 05:07:26;;;;;;;0.00;0.00;;;;;;;9.55;100.00;98732.16;4906026;29;20028;-78
2023/12/12 05:09:54;;;;;;;0.00;0.00;;;;;;;9.52;100.00;98735.50;4910142;29;20021;-77
2023/12/12 05:12:22;;;;;;;0.00;0.00;;;;;;;9.30;100.00;98721.69;4893120;29;20122;-80
2023/12/12 05:14:47;;;;;;;0.05;0.05;;;;;;;9.30;100.00;98727.16;4915155;29;20040;-78
2023/12/12 05:17:12;;;;;;;0.00;0.00;;;;;;;9.13;100.00;98708.63;4882322;29;20036;-79
2023/12/12 05:19:45;;;;;;;0.00;0.00;;;;;;;9.33;100.00;98754.66;4883085;29;20031;-80
2023/12/12 05:22:24;;;;;;;;;;;;;;;;;;;;;
2023/12/12 05:24:58;;;;;;;0.00;0.00;;;;;;;9.29;100.00;98747.34;4913699;29;20394;-80
2023/12/12 05:27:33;;;;;;;0.00;0.00;;;;;;;9.09;100.00;98708.41;4911648;29;20502;-78
2023/12/12 05:30:01;;;;;;;0.00;0.00;;;;;;;9.04;100.00;98708.50;4919662;29;20028;-78
2023/12/12 05:32:26;;;;;;;0.00;0.00;;;;;;;9.19;100.00;98740.97;4908911;29;20056;-78
2023/12/12 05:34:54;;;;;;;0.00;0.00;;;;;;;9.06;100.00;98717.97;4914818;29;20039;-80
2023/12/12 05:37:24;;;;;;;0.00;0.00;;;;;;;8.99;100.00;98711.28;4924664;29;20132;-79
2023/12/12 05:39:50;;;;;;;0.00;0.00;;;;;;;9.22;100.00;98725.91;4908576;29;20028;-79
2023/12/12 05:42:15;;;;;;;0.00;0.00;;;;;;;9.35;100.00;98729.81;4876848;29;20028;-80
2023/12/12 05:44:41;;;;;;;0.00;0.00;;;;;;;9.38;100.00;98721.00;4885156;29;20451;-79
2023/12/12 05:47:06;;;;;;;0.00;0.00;;;;;;;9.53;100.00;98739.03;4903121;29;20080;-78
2023/12/12 05:49:35;;;;;;;0.00;0.00;;;;;;;9.34;100.00;98711.81;4912348;29;20047;-79
2023/12/12 05:52:03;;;;;;;0.00;0.00;;;;;;;9.16;100.00;98705.31;4892504;29;20036;-79
2023/12/12 05:54:29;;;;;;;0.00;0.00;;;;;;;8.99;100.00;98694.94;4928011;29;20027;-79
2023/12/12 05:56:55;;;;;;;0.00;0.00;;;;;;;8.92;100.00;98700.75;4901147;29;20036;-79
2023/12/12 05:59:28;;;;;;;0.00;0.00;;;;;;;8.68;100.00;98673.63;4930122;29;20028;-77
2023/12/12 06:01:54;;;;;;;0.00;0.00;;;;;;;8.79;100.00;98702.34;4912867;29;20518;-79
2023/12/12 06:04:39;;;;;;;0.00;0.00;;;;;;;8.85;100.00;98720.22;4908076;29;20029;-80
2023/12/12 06:07:13;;;;;;;0.00;0.00;;;;;;;8.68;100.00;98700.88;4914238;29;20036;-80
2023/12/12 06:09:38;;;;;;;0.00;0.00;;;;;;;8.59;100.00;98686.31;4899150;29;20024;-79
2023/12/12 06:12:04;;;;;;;0.00;0.00;;;;;;;8.67;100.00;98710.13;4905196;29;20394;-79
2023/12/12 06:14:30;;;;;;;0.08;0.08;;;;;;;8.60;100.00;98690.63;4890175;29;20096;-79
2023/12/12 06:17:03;;;;;;;0.00;0.00;;;;;;;8.43;100.00;98667.41;4908897;29;20024;-77
2023/12/12 06:19:34;;;;;;;0.00;0.00;;;;;;;8.42;100.00;98665.78;4885400;29;20102;-78
2023/12/12 06:22:13;;;;;;;0.00;0.00;;;;;;;8.30;100.00;98651.81;4905233;29;20036;-78
2023/12/12 06:24:46;;;;;;;0.00;0.00;;;;;;;8.40;100.00;98676.19;4897698;29;21033;-78
2023/12/12 06:27:17;;;;;;;0.00;0.00;;;;;;;8.53;100.00;98715.53;4921447;29;20044;-78
2023/12/12 06:29:45;;;;;;;0.00;0.00;;;;;;;8.38;100.00;98687.38;4888361;29;20048;-79
2023/12/12 06:32:10;;;;;;;0.00;0.00;;;;;;;8.41;100.00;98691.44;4905993;29;20063;-79
2023/12/12 06:34:36;;;;;;;0.00;0.00;;;;;;;8.47;100.00;98703.91;4874030;29;20020;-78
2023/12/12 06:37:01;;;;;;;0.00;0.00;;;;;;;8.43;100.00;98694.66;4899021;29;20027;-78
2023/12/12 06:39:28;;;;;;;0.00;0.00;;;;;;;8.33;100.00;98667.56;4897403;29;20059;-80
2023/12/12 06:41:54;;;;;;;0.00;0.00;;;;;;;8.44;100.00;98693.59;4893849;29;20059;-79
2023/12/12 06:44:19;;;;;;;0.00;0.00;;;;;;;8.41;100.00;98685.97;4907654;29;20048;-81
2023/12/12 06:46:45;;;;;;;0.00;0.00;;;;;;;8.50;100.00;98678.78;4903828;29;20147;-82
2023/12/12 06:49:10;;;;;;;0.00;0.00;;;;;;;8.59;100.00;98694.47;4920950;29;20617;-79
2023/12/12 06:51:35;;;;;;;0.00;0.00;;;;;;;8.40;100.00;98670.72;4913913;29;20040;-78
2023/12/12 06:54:03;;;;;;;0.00;0.00;;;;;;;8.47;100.00;98679.38;4933495;29;20031;-79
2023/12/12 06:56:31;;;;;;;0.00;0.00;;;;;;;8.56;100.00;98691.22;4927999;29;20597;-79
2023/12/12 06:58:56;;;;;;;0.00;0.00;;;;;;;8.47;100.00;98678.56;4896667;29;20024;-79
2023/12/12 07:01:25;;;;;;;0.00;0.00;;;;;;;8.39;100.00;98677.28;4913898;29;20039;-81
2023/12/12 07:04:36;;;;;;;;;;;;;;;;;;;;;
2023/12/12 07:07:50;;;;;;;0.00;0.00;;;;;;;8.76;100.00;98681.13;4888671;29;20043;-79
2023/12/12 07:10:16;;;;;;;0.00;0.00;;;;;;;8.62;100.00;98647.56;4914505;29;20035;-79
2023/12/12 07:12:52;;;;;;;0.00;0.00;;;;;;;8.65;100.00;98641.53;4907904;29;20039;-82
2023/12/12 07:15:26;;;;;;;0.00;0.00;;;;;;;8.67;100.00;98637.41;4902834;29;20115;-79
2023/12/12 07:17:53;;;;;;;0.00;0.00;;;;;;;8.49;100.00;98611.78;4921211;29;20021;-79
2023/12/12 07:20:21;;;;;;;0.00;0.00;;;;;;;8.62;100.00;98625.75;4898971;29;20143;-80
2023/12/12 07:22:56;;;;;;;0.00;0.00;;;;;;;8.87;100.00;98666.22;4883718;29;20578;-81
2023/12/12 07:28:09;;;;;;;0.00;0.00;;;;;;;8.49;100.00;98636.28;4917251;29;20035;-82
2023/12/12 07:31:20;;;;;;;0.00;0.00;;;;;;;8.55;100.00;98643.28;4901563;29;20471;-78
2023/12/12 07:33:45;;;;;;;0.00;0.00;;;;;;;8.48;100.00;98618.31;4886877;29;20045;-78
2023/12/12 07:36:11;;;;;;;0.00;0.00;;;;;;;8.58;100.00;98632.91;4883787;29;20378;-79
2023/12/12 07:38:46;;;;;;;0.00;0.00;;;;;;;8.63;100.00;98638.25;4919414;29;20054;-77
2023/12/12 07:41:35;;;;;;;0.00;0.00;;;;;;;8.81;100.00;98656.50;4873048;29;20172;-78
2023/12/12 07:44:04;;;;;;;0.00;0.00;;;;;;;8.91;100.00;98650.09;4901224;29;20175;-78
2023/12/12 07:46:36;;;;;;;0.00;0.00;;;;;;;9.05;100.00;98661.00;4908355;29;20460;-77
2023/12/12 07:49:02;;;;;;;0.00;0.00;;;;;;;8.98;100.00;98650.50;4887867;29;20115;-77
2023/12/12 07:51:29;;;;;;;0.00;0.00;;;;;;;8.80;100.00;98621.38;4884592;29;20036;-78
2023/12/12 07:53:58;;;;;;;0.00;0.00;;;;;;;8.90;100.00;98630.19;4902297;29;20028;-77
2023/12/12 07:56:25;;;;;;;0.00;0.00;;;;;;;8.81;100.00;98607.44;4893513;29;20032;-75
2023/12/12 07:58:58;;;;;;;0.00;0.00;;;;;;;8.83;100.00;98613.41;4896752;29;20058;-78
2023/12/12 08:01:27;;;;;;;0.00;0.00;;;;;;;8.99;100.00;98634.97;4902300;29;20115;-77
2023/12/12 08:03:52;;;;;;;0.00;0.00;;;;;;;8.84;100.00;98617.75;4875341;29;20450;-77
2023/12/12 08:06:19;;;;;;;0.00;0.00;;;;;;;8.91;100.00;98629.06;4896249;29;20482;-77
2023/12/12 08:08:44;;;;;;;0.00;0.00;;;;;;;8.89;100.00;98614.94;4892457;29;20031;-76
2023/12/12 08:11:23;;;;;;;0.00;0.00;;;;;;;8.94;100.00;98613.25;4880135;29;20035;-77
2023/12/12 08:13:51;;;;;;;0.00;0.00;;;;;;;9.01;100.00;98610.91;4866441;29;20206;-75
2023/12/12 08:16:16;;;;;;;0.00;0.00;;;;;;;9.07;100.00;98609.75;4899594;29;20061;-76
2023/12/12 08:18:46;;;;;;;0.00;0.00;;;;;;;9.03;100.00;98598.59;4883403;29;20062;-78
2023/12/12 08:21:12;;;;;;;0.00;0.00;;;;;;;9.09;100.00;98613.75;4885017;29;20539;-76
2023/12/12 08:23:41;;;;;;;0.00;0.00;;;;;;;9.15;100.00;98594.59;4878444;29;20036;-80
2023/12/12 08:26:06;;;;;;;0.00;0.00;;;;;;;8.94;100.00;98548.63;4891282;29;20435;-79
2023/12/12 08:28:38;;;;;;;0.00;0.00;;;;;;;9.40;100.00;98587.84;4893969;29;20178;-77
2023/12/12 08:31:06;;;;;;;0.00;0.00;;;;;;;9.36;100.00;98584.91;4906058;29;20035;-77
2023/12/12 08:33:36;;;;;;;0.00;0.00;;;;;;;9.46;100.00;98594.00;4892968;29;20096;-77
2023/12/12 08:36:03;;;;;;;0.00;0.00;;;;;;;9.51;100.00;98597.44;4905674;29;20045;-77
2023/12/12 08:38:36;;;;;;;0.00;0.00;;;;;;;9.67;100.00;98599.88;4901621;29;20479;-78
2023/12/12 08:41:04;;;;;;;0.00;0.00;;;;;;;9.66;100.00;98573.69;4898796;29;20064;-77
2023/12/12 08:43:37;;;;;;;0.00;0.00;;;;;;;9.95;100.00;98595.97;4902271;29;20161;-77
2023/12/12 08:46:04;;;;;;;0.00;0.00;;;;;;;9.82;100.00;98574.97;4916780;29;20064;-78
2023/12/12 08:48:32;;;;;;;0.00;0.00;;;;;;;9.94;100.00;98569.78;4901927;29;20032;-78
2023/12/12 08:51:00;;;;;;;0.00;0.00;;;;;;;10.26;100.00;98578.88;4904492;29;20028;-77
2023/12/12 08:53:36;;;;;;;0.00;0.00;;;;;;;10.46;100.00;98566.69;4886535;29;20040;-77
2023/12/12 08:56:14;;;;;;;0.00;0.00;;;;;;;10.54;100.00;98551.50;4906893;29;20040;-78
2023/12/12 08:58:40;;;;;;;0.00;0.00;;;;;;;10.75;100.00;98568.19;4895154;29;20036;-77
2023/12/12 09:01:09;;;;;;;0.00;0.00;;;;;;;10.81;100.00;98577.06;4890697;29;20735;-77
2023/12/12 09:03:47;;;;;;;0.00;0.00;;;;;;;10.68;100.00;98561.56;4903724;29;20091;-77
2023/12/12 09:06:12;;;;;;;0.00;0.00;;;;;;;10.50;100.00;98538.75;4905689;29;20061;-77
2023/12/12 09:08:41;;;;;;;0.00;0.00;;;;;;;10.29;100.00;98517.38;4905561;29;20107;-76
2023/12/12 09:11:22;;;;;;;;;;;;;;;;;;;;;
2023/12/12 09:13:47;;;;;;;0.00;0.00;;;;;;;10.37;100.00;98556.84;4898452;29;20035;-76
2023/12/12 09:16:13;;;;;;;0.00;0.00;;;;;;;10.11;100.00;98539.09;4919655;29;20115;-76
2023/12/12 09:18:38;;;;;;;0.00;0.00;;;;;;;10.20;100.00;98555.53;4905694;29;20475;-76
2023/12/12 09:21:04;;;;;;;0.00;0.00;;;;;;;10.03;100.00;98541.75;4891466;29;20465;-76
2023/12/12 09:23:32;;;;;;;0.00;0.00;;;;;;;10.13;100.00;98552.44;4903930;29;20032;-76
2023/12/12 09:25:57;;;;;;;0.00;0.00;;;;;;;10.03;100.00;98528.91;4908380;29;20114;-77
2023/12/12 09:28:31;;;;;;;0.00;0.00;;;;;;;9.97;100.00;98508.28;4877736;29;20454;-76
2023/12/12 09:31:00;;;;;;;;;;;;;;;10.10;100.00;98523.00;4906908;29;20083;-77
2023/12/12 09:33:25;;;;;;;0.00;0.00;;;;;;;9.95;100.00;98522.25;4908178;29;19915;-76
2023/12/12 09:35:50;;;;;;;0.00;0.00;;;;;;;9.87;100.00;98505.78;4888871;29;20076;-77
2023/12/12 09:38:25;;;;;;;0.00;0.00;;;;;;;9.91;100.00;98512.25;4894339;29;20131;-75
2023/12/12 09:40:56;;;;;;;0.00;0.00;;;;;;;9.93;100.00;98532.69;4911717;29;20111;-76
2023/12/12 09:43:26;;;;;;;0.00;0.00;;;;;;;10.19;100.00;98529.38;4891453;29;20804;-77
2023/12/12 09:46:00;;;;;;;0.00;0.00;;;;;;;12.48;100.00;98531.72;4913733;29;20402;-77
2023/12/12 09:51:39;;;;;;;0.00;0.00;;;;;;;11.82;100.00;98477.91;4895376;29;20036;-79
2023/12/12 09:54:43;;;;;;;0.00;0.00;;;;;;;12.97;100.00;98526.75;4896522;29;20443;-76
2023/12/12 09:57:18;;;;;;;0.00;0.00;;;;;;;11.96;100.00;98484.06;4898055;29;20044;-75
2023/12/12 09:59:43;;;;;;;0.00;0.00;;;;;;;11.27;100.00;98499.25;4904578;29;20107;-74
2023/12/12 10:02:17;;;;;;;0.00;0.00;;;;;;;10.87;100.00;98501.97;4874903;29;20040;-75
2023/12/12 10:04:44;;;;;;;0.00;0.00;;;;;;;10.51;100.00;98502.91;4911419;29;20486;-75
2023/12/12 10:07:13;;;;;;;0.00;0.00;;;;;;;10.20;100.00;98494.66;4903026;29;21750;-74
2023/12/12 10:09:39;;;;;;;0.00;0.00;;;;;;;9.95;100.00;98494.16;4911476;29;20036;-76
2023/12/12 10:12:05;;;;;;;0.00;0.00;;;;;;;9.94;100.00;98517.91;4907367;29;20483;-75
2023/12/12 10:14:49;;;;;;;0.00;0.00;;;;;;;9.88;100.00;98504.69;4891023;29;20032;-76
2023/12/12 10:17:15;;;;;;;0.00;0.00;;;;;;;9.87;100.00;98509.34;4898654;29;20036;-75
2023/12/12 10:19:41;;;;;;;0.00;0.00;;;;;;;10.11;100.00;98510.97;4896048;29;20036;-75
2023/12/12 10:22:11;;;;;;;0.00;0.00;;;;;;;10.18;100.00;98496.88;4909218;29;20032;-76
2023/12/12 10:24:37;;;;;;;0.00;0.00;;;;;;;10.23;100.00;98491.28;4893484;29;20020;-75
2023/12/12 10:27:06;;;;;;;0.00;0.00;;;;;;;10.10;100.00;98506.63;4915288;29;20028;-74
2023/12/12 10:29:31;;;;;;;0.00;0.00;;;;;;;10.83;100.00;98506.44;4887814;29;20036;-75
2023/12/12 10:32:02;;;;;;;0.00;0.00;;;;;;;11.80;100.00;98494.66;4900535;29;20052;-75
2023/12/12 10:34:28;;;;;;;0.00;0.00;;;;;;;12.88;100.00;98479.38;4911151;29;20043;-77
2023/12/12 10:36:54;;;;;;;0.00;0.00;;;;;;;14.31;100.00;98506.06;4907038;29;20371;-77
2023/12/12 10:39:20;;;;;;;0.00;0.00;;;;;;;16.17;98.30;98495.94;4899471;29;20051;-75
2023/12/12 10:41:55;;;;;;;0.00;0.00;;;;;;;17.16;90.20;98489.88;4906864;29;21599;-76
2023/12/12 10:44:21;;;;;;;0.00;0.00;;;;;;;17.36;85.61;98481.66;4909082;29;20115;-75
2023/12/12 10:46:54;;;;;;;0.00;0.00;;;;;;;17.33;86.01;98472.13;4889925;29;20027;-76
2023/12/12 10:49:23;;;;;;;0.00;0.00;;;;;;;15.66;86.36;98457.00;4909920;29;20035;-76
2023/12/12 10:51:49;;;;;;;0.00;0.00;;;;;;;16.18;90.73;98449.88;4903796;29;20067;-76
2023/12/12 10:54:16;;;;;;;0.00;0.00;;;;;;;15.48;91.50;98471.03;4909209;29;20056;-75
2023/12/12 10:56:48;;;;;;;0.00;0.00;;;;;;;14.24;93.60;98461.81;4891039;29;20040;-75
2023/12/12 10:59:16;;;;;;;0.00;0.00;;;;;;;13.62;99.38;98457.97;4912766;29;20044;-76
2023/12/12 11:01:49;;;;;;;0.10;0.10;;;;;;;13.07;100.00;98438.59;4910157;29;20514;-75
2023/12/12 11:04:15;;;;;;;0.00;0.00;;;;;;;13.39;100.00;98428.09;4920554;29;20034;-76
2023/12/12 11:06:43;;;;;;;0.00;0.00;;;;;;;16.15;100.00;98439.53;4907919;29;20124;-75
2023/12/12 11:09:18;;;;;;;0.00;0.00;;;;;;;17.92;89.78;98442.66;4898621;29;20044;-77
2023/12/12 11:11:53;;;;;;;0.00;0.00;;;;;;;18.45;84.45;98417.19;4904273;29;20040;-75
2023/12/12 11:14:21;;;;;;;0.00;0.00;;;;;;;18.10;86.13;98407.03;4902267;29;20055;-76
2023/12/12 11:16:50;;;;;;;0.00;0.00;;;;;;;16.84;87.30;98420.03;4889372;29;20776;-77
2023/12/12 11:19:16;;;;;;;0.00;0.00;;;;;;;15.03;92.27;98392.16;4924298;29;20040;-77
2023/12/12 11:21:46;;;;;;;0.00;0.00;;;;;;;13.75;100.00;98396.47;4922162;29;20036;-77
2023/12/12 11:24:16;;;;;;;0.00;0.00;;;;;;;12.87;100.00;98392.72;4904101;29;20102;-77
2023/12/12 11:26:43;;;;;;;0.00;0.00;;;;;;;12.15;100.00;98395.22;4895214;29;20059;-76
2023/12/12 11:29:15;;;;;;;0.00;0.00;;;;;;;11.65;100.00;98394.63;4909203;29;20024;-76
2023/12/12 11:32:03;;;;;;;0.00;0.00;;;;;;;11.29;100.00;98405.91;4886191;29;20590;-77
2023/12/12 11:34:40;;;;;;;0.00;0.00;;;;;;;10.99;100.00;98425.63;4905808;29;21533;-75
2023/12/12 11:37:07;;;;;;;0.00;0.00;;;;;;;10.73;100.00;98389.19;4908257;29;20091;-76
2023/12/12 11:39:59;;;;;;;0.00;0.00;;;;;;;10.63;100.00;98412.94;4903591;29;20035;-74
2023/12/12 11:42:25;;;;;;;0.00;0.00;;;;;;;10.37;100.00;98365.59;4895169;29;20159;-76
2023/12/12 11:44:54;;;;;;;0.00;0.00;;;;;;;10.28;100.00;98384.66;4896824;29;20115;-76
2023/12/12 11:47:27;;;;;;;0.00;0.00;;;;;;;9.82;100.00;98399.47;4890834;29;20652;-75
2023/12/12 11:50:22;;;;;;;0.00;0.00;;;;;;;9.24;100.00;98383.59;4906037;29;20023;-74
2023/12/12 11:52:47;;;;;;;0.00;0.00;;;;;;;8.85;100.00;98356.91;4902486;29;20035;-75